createdAt,value
2018-08-31T00:00:17.330Z,0
2018-08-31T00:00:57.793Z,0
2018-08-31T00:01:38.197Z,0
2018-08-31T00:02:18.560Z,0
2018-08-31T00:02:58.927Z,0
2018-08-31T00:03:39.371Z,0
2018-08-31T00:04:19.717Z,0
2018-08-31T00:05:00.151Z,0
2018-08-31T00:05:40.584Z,0
2018-08-31T00:06:20.931Z,0
2018-08-31T00:07:01.390Z,0
2018-08-31T00:07:41.753Z,0
2018-08-31T00:08:22.189Z,0
2018-08-31T00:09:02.563Z,0
2018-08-31T00:09:42.970Z,0
2018-08-31T00:10:23.356Z,0
2018-08-31T00:11:03.775Z,0
2018-08-31T00:11:44.179Z,0
2018-08-31T00:12:24.475Z,0
2018-08-31T00:13:04.928Z,0
2018-08-31T00:13:45.362Z,0
2018-08-31T00:14:25.717Z,0
2018-08-31T00:15:06.111Z,0
2018-08-31T00:15:46.516Z,0
2018-08-31T00:16:26.913Z,0
2018-08-31T00:17:07.310Z,0
2018-08-31T00:17:47.732Z,0
2018-08-31T00:18:28.134Z,0
2018-08-31T00:19:08.498Z,0
2018-08-31T00:19:48.942Z,0
2018-08-31T00:20:29.328Z,0
2018-08-31T00:21:09.765Z,0
2018-08-31T00:21:50.138Z,0
2018-08-31T00:22:30.512Z,0
2018-08-31T00:23:10.918Z,0
2018-08-31T00:23:51.295Z,0
2018-08-31T00:24:31.678Z,0
2018-08-31T00:25:12.121Z,0
2018-08-31T00:25:52.449Z,0
2018-08-31T00:26:32.855Z,0
2018-08-31T00:27:13.205Z,0
2018-08-31T00:27:53.662Z,0
2018-08-31T00:28:34.084Z,0
2018-08-31T00:29:14.430Z,0
2018-08-31T00:29:54.896Z,0
2018-08-31T00:30:35.238Z,0
2018-08-31T00:31:15.651Z,0
2018-08-31T00:31:56.053Z,0
2018-08-31T00:32:36.489Z,0
2018-08-31T00:33:16.894Z,0
2018-08-31T00:33:57.284Z,0
2018-08-31T00:34:37.698Z,0
2018-08-31T00:35:18.078Z,0
2018-08-31T00:35:58.517Z,0
2018-08-31T00:36:38.854Z,0
2018-08-31T00:37:19.321Z,0
2018-08-31T00:37:59.714Z,0
2018-08-31T00:38:40.058Z,0
2018-08-31T00:39:20.440Z,0
2018-08-31T00:40:00.859Z,0
2018-08-31T00:40:41.272Z,0
2018-08-31T00:41:21.711Z,0
2018-08-31T00:42:02.072Z,0
2018-08-31T00:42:42.449Z,0
2018-08-31T00:43:22.863Z,0
2018-08-31T00:44:03.295Z,0
2018-08-31T00:44:43.710Z,0
2018-08-31T00:45:24.122Z,0
2018-08-31T00:46:04.452Z,0
2018-08-31T00:46:44.889Z,0
2018-08-31T00:47:25.311Z,0
2018-08-31T00:48:05.785Z,0
2018-08-31T00:48:46.132Z,0
2018-08-31T00:49:26.518Z,0
2018-08-31T00:50:06.963Z,0
2018-08-31T00:50:47.353Z,0
2018-08-31T00:53:07.218Z,0
2018-08-31T00:53:47.590Z,0
2018-08-31T00:54:27.919Z,0
2018-08-31T00:55:08.339Z,0
2018-08-31T00:55:48.768Z,0
2018-08-31T00:56:29.143Z,0
2018-08-31T00:57:09.630Z,0
2018-08-31T00:57:49.991Z,0
2018-08-31T00:58:30.382Z,0
2018-08-31T00:59:10.831Z,0
2018-08-31T00:59:51.169Z,0
2018-08-31T01:00:31.651Z,0
2018-08-31T01:01:11.986Z,0
2018-08-31T01:01:52.377Z,0
2018-08-31T01:02:32.756Z,0
2018-08-31T01:03:13.278Z,0
2018-08-31T01:03:53.557Z,0
2018-08-31T01:04:34.020Z,0
2018-08-31T01:05:14.390Z,0
2018-08-31T01:05:54.790Z,0
2018-08-31T01:06:35.251Z,0
2018-08-31T01:07:15.724Z,0
2018-08-31T01:07:56.086Z,0
2018-08-31T01:08:36.511Z,0
2018-08-31T01:09:16.953Z,0
2018-08-31T01:09:57.328Z,0
2018-08-31T01:10:37.716Z,0
2018-08-31T01:11:18.102Z,0
2018-08-31T01:13:15.779Z,0
2018-08-31T01:13:56.076Z,0
2018-08-31T01:14:36.413Z,0
2018-08-31T01:15:16.867Z,0
2018-08-31T01:15:57.318Z,0
2018-08-31T01:16:37.643Z,0
2018-08-31T01:17:18.063Z,0
2018-08-31T01:17:58.404Z,0
2018-08-31T01:18:38.807Z,0
2018-08-31T01:19:19.228Z,0
2018-08-31T01:19:59.623Z,0
2018-08-31T01:20:40.089Z,0
2018-08-31T01:21:20.450Z,0
2018-08-31T01:22:00.815Z,0
2018-08-31T01:22:41.251Z,0
2018-08-31T01:23:21.679Z,0
2018-08-31T01:24:02.101Z,0
2018-08-31T01:24:42.498Z,0
2018-08-31T01:25:22.861Z,0
2018-08-31T01:26:03.279Z,0
2018-08-31T01:26:43.636Z,0
2018-08-31T01:27:24.026Z,0
2018-08-31T01:28:04.453Z,0
2018-08-31T01:28:44.848Z,0
2018-08-31T01:29:25.278Z,0
2018-08-31T01:30:05.661Z,0
2018-08-31T01:30:46.060Z,0
2018-08-31T01:31:26.477Z,0
2018-08-31T01:32:06.889Z,0
2018-08-31T01:34:26.501Z,0
2018-08-31T01:35:06.898Z,0
2018-08-31T01:35:47.300Z,0
2018-08-31T01:36:27.717Z,0
2018-08-31T01:37:08.112Z,0
2018-08-31T01:37:48.482Z,0
2018-08-31T01:38:28.903Z,0
2018-08-31T01:39:09.315Z,0
2018-08-31T01:39:49.676Z,0
2018-08-31T01:40:30.091Z,0
2018-08-31T01:41:10.478Z,0
2018-08-31T01:41:50.903Z,0
2018-08-31T01:42:31.338Z,0
2018-08-31T01:43:11.697Z,0
2018-08-31T01:43:52.113Z,0
2018-08-31T01:44:32.506Z,0
2018-08-31T01:45:12.901Z,0
2018-08-31T01:45:53.346Z,0
2018-08-31T01:46:33.733Z,0
2018-08-31T01:47:14.096Z,0
2018-08-31T01:47:54.509Z,0
2018-08-31T01:48:34.941Z,0
2018-08-31T01:49:15.307Z,0
2018-08-31T01:49:55.728Z,0
2018-08-31T01:50:36.136Z,0
2018-08-31T01:51:16.531Z,0
2018-08-31T01:51:56.895Z,0
2018-08-31T01:52:37.285Z,0
2018-08-31T01:53:17.692Z,0
2018-08-31T01:53:58.136Z,0
2018-08-31T01:54:38.500Z,0
2018-08-31T01:55:18.921Z,0
2018-08-31T01:55:59.377Z,0
2018-08-31T01:56:39.797Z,0
2018-08-31T01:57:20.138Z,0
2018-08-31T01:58:00.546Z,0
2018-08-31T01:58:40.982Z,0
2018-08-31T01:59:21.353Z,0
2018-08-31T02:00:01.728Z,0
2018-08-31T02:00:42.117Z,0
2018-08-31T02:01:22.589Z,0
2018-08-31T02:02:02.902Z,0
2018-08-31T02:02:43.422Z,0
2018-08-31T02:03:23.723Z,0
2018-08-31T02:04:04.158Z,0
2018-08-31T02:04:44.516Z,0
2018-08-31T02:05:24.969Z,0
2018-08-31T02:06:05.379Z,0
2018-08-31T02:06:45.723Z,0
2018-08-31T02:07:26.129Z,0
2018-08-31T02:08:06.502Z,0
2018-08-31T02:08:46.917Z,0
2018-08-31T02:09:27.265Z,0
2018-08-31T02:10:07.666Z,0
2018-08-31T02:10:48.094Z,0
2018-08-31T02:11:28.446Z,0
2018-08-31T02:12:08.902Z,0
2018-08-31T02:12:49.305Z,0
2018-08-31T02:13:29.686Z,0
2018-08-31T02:14:10.104Z,0
2018-08-31T02:14:50.490Z,0
2018-08-31T02:15:30.876Z,0
2018-08-31T02:16:11.253Z,0
2018-08-31T02:16:51.636Z,0
2018-08-31T02:17:32.054Z,0
2018-08-31T02:18:12.416Z,0
2018-08-31T02:18:52.916Z,0
2018-08-31T02:19:33.313Z,0
2018-08-31T02:20:13.735Z,0
2018-08-31T02:20:54.113Z,0
2018-08-31T02:21:34.558Z,0
2018-08-31T02:22:14.966Z,0
2018-08-31T02:22:55.401Z,0
2018-08-31T02:23:35.800Z,0
2018-08-31T02:24:16.188Z,0
2018-08-31T02:24:56.602Z,0
2018-08-31T02:25:37.028Z,0
2018-08-31T02:26:17.395Z,0
2018-08-31T02:26:57.756Z,0
2018-08-31T02:27:38.241Z,0
2018-08-31T02:28:18.628Z,0
2018-08-31T02:28:59.021Z,0
2018-08-31T02:29:39.417Z,0
2018-08-31T02:30:19.798Z,0
2018-08-31T02:31:00.198Z,0
2018-08-31T02:31:40.646Z,0
2018-08-31T02:32:21.032Z,0
2018-08-31T02:33:01.390Z,0
2018-08-31T02:33:41.804Z,0
2018-08-31T02:34:22.221Z,0
2018-08-31T02:35:02.608Z,0
2018-08-31T02:35:42.963Z,0
2018-08-31T02:36:23.377Z,0
2018-08-31T02:37:03.822Z,0
2018-08-31T02:37:44.193Z,0
2018-08-31T02:38:24.574Z,0
2018-08-31T02:39:05.042Z,0
2018-08-31T02:39:45.366Z,0
2018-08-31T02:40:25.756Z,0
2018-08-31T02:41:06.192Z,0
2018-08-31T02:41:46.585Z,0
2018-08-31T02:42:26.983Z,0
2018-08-31T02:43:07.369Z,0
2018-08-31T02:43:47.827Z,0
2018-08-31T02:44:28.196Z,0
2018-08-31T02:45:08.610Z,0
2018-08-31T02:45:49.072Z,0
2018-08-31T02:46:29.394Z,0
2018-08-31T02:47:09.770Z,0
2018-08-31T02:47:50.231Z,0
2018-08-31T02:48:30.617Z,0
2018-08-31T02:49:10.984Z,0
2018-08-31T02:49:51.399Z,0
2018-08-31T02:50:31.824Z,0
2018-08-31T02:51:12.248Z,0
2018-08-31T02:51:52.640Z,0
2018-08-31T02:52:32.975Z,0
2018-08-31T02:53:13.374Z,0
2018-08-31T02:53:53.817Z,0
2018-08-31T02:54:34.190Z,0
2018-08-31T02:55:14.576Z,0
2018-08-31T02:55:54.985Z,0
2018-08-31T02:56:35.413Z,0
2018-08-31T02:57:15.787Z,0
2018-08-31T02:59:30.406Z,0
2018-08-31T03:00:10.646Z,0
2018-08-31T03:00:51.096Z,0
2018-08-31T03:01:31.441Z,0
2018-08-31T03:02:11.785Z,0
2018-08-31T03:02:52.222Z,0
2018-08-31T03:03:32.644Z,0
2018-08-31T03:04:13.065Z,0
2018-08-31T03:04:53.427Z,0
2018-08-31T03:05:33.839Z,0
2018-08-31T03:06:14.270Z,0
2018-08-31T03:06:54.678Z,0
2018-08-31T03:07:35.077Z,0
2018-08-31T03:08:15.501Z,0
2018-08-31T03:08:55.864Z,0
2018-08-31T03:09:36.234Z,0
2018-08-31T03:10:16.695Z,0
2018-08-31T03:10:57.043Z,0
2018-08-31T03:11:37.545Z,0
2018-08-31T03:12:17.840Z,0
2018-08-31T03:12:58.262Z,0
2018-08-31T03:13:38.680Z,0
2018-08-31T03:14:19.078Z,0
2018-08-31T03:14:59.519Z,0
2018-08-31T03:15:39.854Z,0
2018-08-31T03:16:20.372Z,0
2018-08-31T03:17:00.679Z,0
2018-08-31T03:17:41.194Z,0
2018-08-31T03:18:21.509Z,0
2018-08-31T03:19:01.891Z,0
2018-08-31T03:19:42.348Z,0
2018-08-31T03:20:22.822Z,0
2018-08-31T03:21:03.143Z,0
2018-08-31T03:21:43.524Z,0
2018-08-31T03:22:23.962Z,0
2018-08-31T03:23:04.389Z,0
2018-08-31T03:23:44.821Z,0
2018-08-31T03:24:25.254Z,0
2018-08-31T03:25:05.567Z,0
2018-08-31T03:25:46.043Z,0
2018-08-31T03:26:26.400Z,0
2018-08-31T03:27:06.813Z,0
2018-08-31T03:27:47.296Z,0
2018-08-31T03:28:27.638Z,0
2018-08-31T03:29:08.060Z,0
2018-08-31T03:29:48.567Z,0
2018-08-31T03:30:28.886Z,0
2018-08-31T03:31:09.308Z,0
2018-08-31T03:31:49.719Z,0
2018-08-31T03:32:30.260Z,0
2018-08-31T03:33:10.543Z,0
2018-08-31T03:33:51.067Z,0
2018-08-31T03:34:31.436Z,0
2018-08-31T03:35:11.843Z,0
2018-08-31T03:37:29.382Z,0
2018-08-31T03:38:09.814Z,0
2018-08-31T03:38:50.200Z,0
2018-08-31T03:39:30.598Z,0
2018-08-31T03:40:11.010Z,0
2018-08-31T03:40:51.421Z,0
2018-08-31T03:41:31.809Z,0
2018-08-31T03:42:12.223Z,0
2018-08-31T03:42:52.620Z,0
2018-08-31T03:43:32.989Z,0
2018-08-31T03:44:13.427Z,0
2018-08-31T03:44:53.885Z,0
2018-08-31T03:45:34.184Z,0
2018-08-31T03:46:14.680Z,0
2018-08-31T03:48:42.435Z,0
2018-08-31T03:49:23.029Z,0
2018-08-31T03:50:03.237Z,0
2018-08-31T03:50:43.666Z,0
2018-08-31T03:51:24.085Z,0
2018-08-31T03:52:04.466Z,0
2018-08-31T03:52:44.886Z,0
2018-08-31T03:53:25.293Z,0
2018-08-31T03:54:05.723Z,0
2018-08-31T03:54:46.082Z,0
2018-08-31T03:55:26.516Z,0
2018-08-31T03:56:06.914Z,0
2018-08-31T03:56:47.298Z,0
2018-08-31T03:57:27.694Z,0
2018-08-31T03:58:08.130Z,0
2018-08-31T03:58:49.324Z,0
2018-08-31T03:59:29.689Z,0
2018-08-31T04:00:10.169Z,0
2018-08-31T04:00:50.495Z,0
2018-08-31T04:01:30.916Z,0
2018-08-31T04:02:11.317Z,0
2018-08-31T04:02:51.725Z,0
2018-08-31T04:03:32.111Z,0
2018-08-31T04:04:12.556Z,0
2018-08-31T04:04:52.980Z,0
2018-08-31T04:05:33.362Z,0
2018-08-31T04:06:13.720Z,0
2018-08-31T04:06:54.093Z,0
2018-08-31T04:07:34.536Z,0
2018-08-31T04:08:14.928Z,0
2018-08-31T04:08:55.318Z,0
2018-08-31T04:09:35.702Z,0
2018-08-31T04:10:16.071Z,0
2018-08-31T04:10:56.455Z,0
2018-08-31T04:11:36.841Z,0
2018-08-31T04:12:17.235Z,0
2018-08-31T04:12:57.640Z,0
2018-08-31T04:13:38.094Z,0
2018-08-31T04:14:18.438Z,0
2018-08-31T04:14:58.933Z,0
2018-08-31T04:15:39.334Z,0
2018-08-31T04:16:20.502Z,0
2018-08-31T04:17:01.031Z,0
2018-08-31T04:17:41.630Z,0
2018-08-31T04:18:22.067Z,0
2018-08-31T04:19:02.609Z,0
2018-08-31T04:19:43.027Z,0
2018-08-31T04:20:23.399Z,0
2018-08-31T04:21:03.805Z,0
2018-08-31T04:21:44.209Z,0
2018-08-31T04:22:24.652Z,0
2018-08-31T04:23:05.083Z,0
2018-08-31T04:23:45.400Z,0
2018-08-31T04:24:25.793Z,0
2018-08-31T04:25:06.222Z,0
2018-08-31T04:25:46.653Z,0
2018-08-31T04:26:27.009Z,0
2018-08-31T04:27:07.402Z,0
2018-08-31T05:06:42.351Z,72
2018-08-31T05:07:22.700Z,80
2018-08-31T05:08:03.091Z,84
2018-08-31T05:08:43.721Z,88
2018-08-31T05:09:24.138Z,92
2018-08-31T05:10:04.521Z,96
2018-08-31T05:10:44.947Z,100
2018-08-31T05:11:25.444Z,100
2018-08-31T05:12:05.881Z,108
2018-08-31T05:12:46.421Z,116
2018-08-31T05:13:26.965Z,120
2018-08-31T05:14:07.402Z,124
2018-08-31T05:14:48.021Z,132
2018-08-31T05:15:28.531Z,136
2018-08-31T05:16:09.133Z,144
2018-08-31T05:16:49.432Z,148
2018-08-31T05:17:29.841Z,156
2018-08-31T05:18:10.254Z,156
2018-08-31T05:18:50.637Z,160
2018-08-31T05:19:31.020Z,164
2018-08-31T05:20:11.529Z,168
2018-08-31T05:20:51.882Z,172
2018-08-31T05:21:32.258Z,176
2018-08-31T05:22:12.592Z,180
2018-08-31T05:22:53.034Z,180
2018-08-31T05:23:33.600Z,184
2018-08-31T05:24:13.950Z,180
2018-08-31T05:24:54.341Z,184
2018-08-31T05:25:34.767Z,188
2018-08-31T05:26:15.137Z,196
2018-08-31T05:26:55.567Z,204
2018-08-31T05:27:35.946Z,212
2018-08-31T05:28:16.404Z,220
2018-08-31T05:28:56.748Z,224
2018-08-31T05:29:37.153Z,224
2018-08-31T05:30:17.574Z,220
2018-08-31T05:30:57.995Z,216
2018-08-31T05:31:38.366Z,216
2018-08-31T05:32:18.737Z,212
2018-08-31T05:32:59.168Z,216
2018-08-31T05:33:39.575Z,212
2018-08-31T05:34:19.992Z,208
2018-08-31T05:35:00.364Z,208
2018-08-31T05:35:40.743Z,208
2018-08-31T05:36:21.136Z,208
2018-08-31T05:37:01.513Z,208
2018-08-31T05:37:41.955Z,196
2018-08-31T05:38:22.355Z,188
2018-08-31T05:39:02.746Z,176
2018-08-31T05:39:43.157Z,164
2018-08-31T05:40:23.507Z,156
2018-08-31T05:41:03.999Z,152
2018-08-31T05:41:45.247Z,148
2018-08-31T05:42:25.873Z,144
2018-08-31T05:43:06.284Z,152
2018-08-31T05:43:46.704Z,152
2018-08-31T05:44:27.138Z,156
2018-08-31T05:45:07.506Z,168
2018-08-31T05:45:47.917Z,172
2018-08-31T05:46:28.373Z,172
2018-08-31T05:47:08.828Z,176
2018-08-31T05:47:49.198Z,180
2018-08-31T05:48:29.681Z,184
2018-08-31T05:49:10.141Z,192
2018-08-31T05:49:50.522Z,200
2018-08-31T05:50:30.941Z,204
2018-08-31T05:51:11.361Z,208
2018-08-31T05:51:51.770Z,216
2018-08-31T05:52:32.170Z,228
2018-08-31T05:57:03.249Z,312
2018-08-31T05:57:56.822Z,320
2018-08-31T05:58:48.583Z,332
2018-08-31T05:59:42.345Z,356
2018-08-31T06:00:37.385Z,376
2018-08-31T06:01:29.798Z,388
2018-08-31T06:02:09.744Z,408
2018-08-31T06:02:50.208Z,432
2018-08-31T06:03:30.653Z,448
2018-08-31T06:04:11.113Z,444
2018-08-31T06:04:51.740Z,436
2018-08-31T06:05:32.316Z,440
2018-08-31T06:06:12.769Z,464
2018-08-31T06:06:53.807Z,480
2018-08-31T06:07:34.436Z,488
2018-08-31T06:08:15.214Z,476
2018-08-31T06:08:55.807Z,456
2018-08-31T06:09:36.840Z,444
2018-08-31T06:10:17.748Z,420
2018-08-31T06:10:58.551Z,408
2018-08-31T06:11:39.201Z,408
2018-08-31T06:12:20.774Z,424
2018-08-31T06:13:00.937Z,440
2018-08-31T06:13:41.268Z,460
2018-08-31T06:14:21.664Z,480
2018-08-31T06:15:02.338Z,492
2018-08-31T06:15:42.952Z,504
2018-08-31T06:16:23.340Z,516
2018-08-31T06:17:03.743Z,536
2018-08-31T06:17:44.182Z,560
2018-08-31T06:18:24.554Z,584
2018-08-31T06:19:05.114Z,596
2018-08-31T06:19:45.621Z,604
2018-08-31T06:20:25.878Z,612
2018-08-31T06:21:06.411Z,624
2018-08-31T06:21:46.834Z,632
2018-08-31T06:22:27.725Z,628
2018-08-31T06:23:07.734Z,656
2018-08-31T06:23:48.237Z,688
2018-08-31T06:24:28.776Z,732
2018-08-31T06:25:09.133Z,796
2018-08-31T06:25:51.884Z,864
2018-08-31T06:26:33.668Z,936
2018-08-31T06:27:15.377Z,1016
2018-08-31T06:27:55.727Z,1068
2018-08-31T06:28:36.234Z,1100
2018-08-31T06:29:16.759Z,1108
2018-08-31T06:29:57.065Z,1100
2018-08-31T06:30:37.693Z,1092
2018-08-31T06:31:20.985Z,1080
2018-08-31T06:32:01.485Z,1060
2018-08-31T06:32:41.985Z,1032
2018-08-31T06:33:23.289Z,1000
2018-08-31T06:34:08.656Z,972
2018-08-31T06:34:51.944Z,940
2018-08-31T06:35:38.569Z,928
2018-08-31T06:36:19.025Z,940
2018-08-31T06:37:00.454Z,928
2018-08-31T06:37:40.862Z,904
2018-08-31T06:38:21.733Z,876
2018-08-31T06:39:02.240Z,828
2018-08-31T06:39:43.532Z,764
2018-08-31T06:40:25.036Z,732
2018-08-31T06:41:05.945Z,724
2018-08-31T06:41:46.422Z,708
2018-08-31T06:42:26.851Z,692
2018-08-31T06:43:07.240Z,688
2018-08-31T06:43:48.106Z,688
2018-08-31T06:44:28.541Z,688
2018-08-31T06:45:08.999Z,688
2018-08-31T06:45:49.448Z,696
2018-08-31T06:46:30.788Z,700
2018-08-31T06:47:12.185Z,704
2018-08-31T06:47:53.971Z,704
2018-08-31T06:48:36.487Z,688
2018-08-31T06:49:25.551Z,676
2018-08-31T06:50:05.823Z,664
2018-08-31T06:50:46.364Z,656
2018-08-31T06:51:28.487Z,644
2018-08-31T06:52:09.461Z,636
2018-08-31T06:52:50.263Z,632
2018-08-31T06:53:30.553Z,632
2018-08-31T06:54:11.042Z,632
2018-08-31T06:54:51.419Z,632
2018-08-31T06:55:31.812Z,628
2018-08-31T06:56:12.293Z,624
2018-08-31T06:56:52.720Z,624
2018-08-31T06:57:33.395Z,620
2018-08-31T06:58:14.719Z,620
2018-08-31T06:58:56.330Z,612
2018-08-31T06:59:38.950Z,604
2018-08-31T07:00:21.008Z,604
2018-08-31T07:02:38.287Z,644
2018-08-31T07:03:23.036Z,660
2018-08-31T07:04:02.752Z,680
2018-08-31T07:06:37.360Z,708
2018-08-31T07:09:13.936Z,716
2018-08-31T07:10:11.435Z,720
2018-08-31T07:11:02.824Z,728
2018-08-31T07:11:43.391Z,740
2018-08-31T07:12:39.438Z,752
2018-08-31T07:13:19.839Z,764
2018-08-31T07:14:00.380Z,772
2018-08-31T07:14:41.832Z,780
2018-08-31T07:15:21.794Z,784
2018-08-31T07:16:02.300Z,796
2018-08-31T07:16:42.845Z,804
2018-08-31T07:17:23.289Z,812
2018-08-31T07:18:03.676Z,820
2018-08-31T07:18:44.072Z,836
2018-08-31T07:19:24.480Z,848
2018-08-31T07:20:04.941Z,884
2018-08-31T07:20:45.346Z,944
2018-08-31T07:21:25.797Z,940
2018-08-31T07:22:06.196Z,908
2018-08-31T07:22:46.753Z,908
2018-08-31T07:23:27.120Z,920
2018-08-31T07:24:07.597Z,936
2018-08-31T07:24:48.987Z,948
2018-08-31T07:25:28.595Z,960
2018-08-31T07:26:09.294Z,972
2018-08-31T07:26:49.711Z,984
2018-08-31T07:27:30.702Z,1000
2018-08-31T07:32:13.091Z,1072
2018-08-31T07:32:53.235Z,1084
2018-08-31T07:33:33.702Z,1092
2018-08-31T07:34:14.221Z,1108
2018-08-31T07:34:54.577Z,1116
2018-08-31T07:35:35.014Z,1128
2018-08-31T07:36:15.403Z,1128
2018-08-31T07:36:56.704Z,1132
2018-08-31T07:37:37.318Z,1128
2018-08-31T07:38:17.928Z,1132
2018-08-31T07:38:58.418Z,1136
2018-08-31T07:39:38.817Z,1136
2018-08-31T07:40:19.253Z,1148
2018-08-31T07:40:59.742Z,1156
2018-08-31T07:41:40.636Z,1164
2018-08-31T07:42:21.196Z,1164
2018-08-31T07:43:02.076Z,1164
2018-08-31T07:43:42.615Z,1148
2018-08-31T07:44:22.913Z,1140
2018-08-31T07:45:03.622Z,1128
2018-08-31T07:45:44.027Z,1124
2018-08-31T07:46:24.460Z,1120
2018-08-31T07:47:04.908Z,1128
2018-08-31T07:47:45.496Z,1132
2018-08-31T07:48:25.781Z,1152
2018-08-31T07:49:06.126Z,1168
2018-08-31T07:49:46.567Z,1180
2018-08-31T07:50:27.250Z,1196
2018-08-31T07:51:07.779Z,1224
2018-08-31T07:51:48.103Z,1252
2018-08-31T07:52:29.164Z,1288
2018-08-31T07:53:09.536Z,1348
2018-08-31T07:53:49.968Z,1412
2018-08-31T07:54:30.393Z,1488
2018-08-31T07:55:10.805Z,1560
2018-08-31T07:55:51.359Z,1644
2018-08-31T07:56:31.890Z,1728
2018-08-31T07:57:12.295Z,1808
2018-08-31T07:57:52.800Z,1880
2018-08-31T07:58:33.377Z,1936
2018-08-31T07:59:13.804Z,1988
2018-08-31T07:59:54.260Z,2024
2018-08-31T08:00:34.860Z,2056
2018-08-31T08:01:15.217Z,2084
2018-08-31T08:01:56.422Z,2104
2018-08-31T08:02:36.956Z,2116
2018-08-31T08:03:17.442Z,2116
2018-08-31T08:03:58.514Z,2120
2018-08-31T08:04:38.910Z,2120
2018-08-31T08:05:19.302Z,2120
2018-08-31T08:05:59.772Z,2104
2018-08-31T08:06:40.106Z,2088
2018-08-31T08:07:20.643Z,2068
2018-08-31T08:08:01.315Z,2044
2018-08-31T08:08:41.776Z,2016
2018-08-31T08:09:22.356Z,1984
2018-08-31T08:10:02.934Z,1964
2018-08-31T08:10:43.226Z,1952
2018-08-31T08:11:23.651Z,1944
2018-08-31T08:12:04.058Z,1940
2018-08-31T08:12:44.483Z,1932
2018-08-31T08:13:24.914Z,1916
2018-08-31T08:14:05.309Z,1892
2018-08-31T08:14:45.881Z,1868
2018-08-31T08:15:26.514Z,1848
2018-08-31T08:16:06.955Z,1836
2018-08-31T08:16:48.348Z,1848
2018-08-31T08:17:29.023Z,1864
2018-08-31T08:18:09.440Z,1884
2018-08-31T08:22:28.262Z,2044
2018-08-31T08:25:14.393Z,2140
2018-08-31T08:25:54.427Z,2168
2018-08-31T08:26:35.294Z,2188
2018-08-31T08:27:15.661Z,2204
2018-08-31T08:29:52.675Z,2280
2018-08-31T08:30:33.159Z,2296
2018-08-31T08:36:20.876Z,2404
2018-08-31T08:37:20.051Z,2432
2018-08-31T08:40:20.386Z,2528
2018-08-31T08:43:04.886Z,2580
2018-08-31T08:43:47.996Z,2592
2018-08-31T08:44:28.183Z,2604
2018-08-31T08:45:08.288Z,2612
2018-08-31T08:45:49.204Z,2632
2018-08-31T08:46:29.496Z,2660
2018-08-31T08:47:11.648Z,2676
2018-08-31T08:47:52.833Z,2684
2018-08-31T08:48:33.356Z,2712
2018-08-31T08:49:14.036Z,2748
2018-08-31T08:49:55.218Z,2768
2018-08-31T08:50:35.899Z,2784
2018-08-31T08:51:18.357Z,2804
2018-08-31T08:51:58.759Z,2816
2018-08-31T08:52:39.195Z,2824
2018-08-31T08:53:19.679Z,2832
2018-08-31T08:54:00.755Z,2844
2018-08-31T08:54:43.168Z,2852
2018-08-31T08:55:23.930Z,2856
2018-08-31T08:56:08.909Z,2872
2018-08-31T08:56:51.841Z,2880
2018-08-31T08:57:32.292Z,2880
2018-08-31T08:58:12.774Z,2872
2018-08-31T08:58:53.177Z,2884
2018-08-31T08:59:33.669Z,2896
2018-08-31T09:00:14.120Z,2868
2018-08-31T09:00:54.548Z,2868
2018-08-31T09:01:35.685Z,2888
2018-08-31T09:02:17.088Z,2888
2018-08-31T09:02:58.433Z,2888
2018-08-31T09:03:38.390Z,2900
2018-08-31T09:04:19.064Z,2904
2018-08-31T09:04:59.530Z,2924
2018-08-31T09:05:40.140Z,2940
2018-08-31T09:06:20.966Z,2956
2018-08-31T09:07:03.981Z,2972
2018-08-31T09:07:45.430Z,2984
2018-08-31T09:08:29.551Z,2996
2018-08-31T09:09:12.613Z,3000
2018-08-31T09:09:55.030Z,3004
2018-08-31T09:10:35.637Z,3012
2018-08-31T09:11:18.829Z,3012
2018-08-31T09:12:01.246Z,3016
2018-08-31T09:12:41.708Z,3020
2018-08-31T09:13:23.959Z,3028
2018-08-31T09:14:06.083Z,3032
2018-08-31T09:14:49.878Z,3032
2018-08-31T09:17:28.441Z,3044
2018-08-31T09:18:11.701Z,3032
2018-08-31T09:20:31.263Z,3044
2018-08-31T09:21:11.770Z,3040
2018-08-31T09:21:52.569Z,3044
2018-08-31T09:22:38.202Z,3040
2018-08-31T09:23:27.856Z,3040
2018-08-31T09:24:09.536Z,3036
2018-08-31T09:24:50.419Z,3032
2018-08-31T09:26:02.925Z,3024
2018-08-31T09:26:46.609Z,3000
2018-08-31T09:27:27.076Z,3012
2018-08-31T09:29:47.325Z,2996
2018-08-31T09:30:39.133Z,2912
2018-08-31T09:31:20.080Z,2888
2018-08-31T09:32:01.841Z,2888
2018-08-31T09:32:45.097Z,2964
2018-08-31T09:33:29.212Z,2964
2018-08-31T09:34:15.203Z,2952
2018-08-31T09:34:55.109Z,2940
2018-08-31T09:35:36.406Z,2952
2018-08-31T09:36:18.842Z,2956
2018-08-31T09:37:01.024Z,2956
2018-08-31T09:37:42.413Z,2956
2018-08-31T09:51:57.311Z,3008
2018-08-31T09:52:37.757Z,3012
2018-08-31T09:53:18.259Z,3016
2018-08-31T09:53:58.991Z,3016
2018-08-31T09:54:39.517Z,3016
2018-08-31T09:55:20.873Z,3016
2018-08-31T09:56:01.357Z,3016
2018-08-31T09:56:41.644Z,3020
2018-08-31T09:57:22.254Z,3024
2018-08-31T09:58:03.686Z,3020
2018-08-31T09:58:44.465Z,3024
2018-08-31T09:59:24.927Z,3024
2018-08-31T10:00:06.358Z,3020
2018-08-31T10:00:48.004Z,3020
2018-08-31T10:01:28.095Z,3020
2018-08-31T10:02:10.381Z,3020
2018-08-31T10:02:50.742Z,3020
2018-08-31T10:03:32.789Z,3020
2018-08-31T10:08:10.808Z,3028
2018-08-31T10:08:49.478Z,3028
2018-08-31T10:09:31.762Z,3028
2018-08-31T10:10:12.984Z,3028
2018-08-31T10:10:52.995Z,3028
2018-08-31T10:11:33.303Z,3032
2018-08-31T10:12:13.961Z,3028
2018-08-31T10:12:56.020Z,3028
2018-08-31T10:13:36.900Z,3028
2018-08-31T10:14:17.923Z,3032
2018-08-31T10:14:58.915Z,3036
2018-08-31T10:15:39.409Z,3044
2018-08-31T10:16:20.914Z,3048
2018-08-31T10:17:02.646Z,3048
2018-08-31T10:17:43.504Z,3048
2018-08-31T10:18:26.439Z,3052
2018-08-31T10:19:06.787Z,3052
2018-08-31T10:19:47.331Z,3044
2018-08-31T10:20:28.215Z,3040
2018-08-31T10:21:09.043Z,3040
2018-08-31T10:21:50.406Z,3040
2018-08-31T10:22:30.346Z,3036
2018-08-31T10:23:11.089Z,3032
2018-08-31T10:23:51.514Z,3032
2018-08-31T10:24:32.062Z,3028
2018-08-31T10:25:12.970Z,3028
2018-08-31T10:25:53.409Z,3028
2018-08-31T10:26:33.858Z,3024
2018-08-31T10:27:15.138Z,3012
2018-08-31T10:27:55.651Z,3004
2018-08-31T10:28:36.231Z,2992
2018-08-31T11:07:12.386Z,2884
2018-08-31T11:08:04.925Z,2636
2018-08-31T11:08:57.447Z,2772
2018-08-31T11:10:02.918Z,2656
2018-08-31T11:10:59.072Z,2564
2018-08-31T11:11:53.997Z,2552
2018-08-31T11:12:50.906Z,2788
2018-08-31T11:13:49.143Z,2588
2018-08-31T11:14:46.956Z,2532
2018-08-31T11:17:26.578Z,2524
2018-08-31T11:18:30.799Z,2512
2018-08-31T11:19:34.436Z,2488
2018-08-31T11:20:31.758Z,2360
2018-08-31T11:21:26.788Z,2268
2018-08-31T11:22:26.788Z,2216
2018-08-31T11:23:22.708Z,2200
2018-08-31T11:25:34.606Z,2156
2018-08-31T11:26:35.812Z,2188
2018-08-31T11:27:50.510Z,2220
2018-08-31T11:33:17.347Z,2180
2018-08-31T11:34:23.486Z,2132
2018-08-31T11:35:23.262Z,2080
2018-08-31T11:36:22.165Z,2052
2018-08-31T11:37:25.031Z,2084
2018-08-31T11:38:18.723Z,2232
2018-08-31T11:39:20.505Z,2624
2018-08-31T11:42:18.902Z,2060
2018-08-31T11:43:14.404Z,1960
2018-08-31T11:44:08.748Z,1916
2018-08-31T11:45:04.989Z,1892
2018-08-31T11:46:02.461Z,2220
2018-08-31T11:46:59.355Z,2136
2018-08-31T11:47:54.036Z,2092
2018-08-31T11:48:52.125Z,2092
2018-08-31T11:49:50.036Z,1940
2018-08-31T11:50:49.942Z,1568
2018-08-31T11:53:07.122Z,1544
2018-08-31T11:54:01.082Z,1628
2018-08-31T11:54:54.427Z,1576
2018-08-31T11:55:48.892Z,1560
2018-08-31T11:56:44.958Z,1540
2018-08-31T11:59:18.853Z,1560
2018-08-31T12:00:13.247Z,1564
2018-08-31T12:01:11.207Z,1584
2018-08-31T12:02:03.717Z,1620
2018-08-31T12:02:58.379Z,1616
2018-08-31T12:03:58.803Z,1620
2018-08-31T12:04:55.322Z,1624
2018-08-31T12:05:52.674Z,1612
2018-08-31T12:06:58.691Z,1604
2018-08-31T12:07:57.035Z,1596
2018-08-31T12:08:52.909Z,1584
2018-08-31T12:09:47.857Z,1576
2018-08-31T12:10:43.927Z,1756
2018-08-31T12:11:40.934Z,2116
2018-08-31T12:12:37.067Z,1576
2018-08-31T12:13:34.697Z,1540
2018-08-31T12:14:31.426Z,1576
2018-08-31T12:15:26.252Z,2072
2018-08-31T12:16:20.612Z,2076
2018-08-31T12:17:12.694Z,2072
2018-08-31T12:18:01.262Z,2072
2018-08-31T12:18:41.490Z,2068
2018-08-31T12:19:21.935Z,2076
2018-08-31T12:20:02.573Z,2076
2018-08-31T12:20:43.306Z,2088
2018-08-31T12:21:23.658Z,2080
2018-08-31T12:22:04.416Z,2072
2018-08-31T12:22:45.318Z,2064
2018-08-31T12:23:27.182Z,2076